Time;durP1;ratioP1;P1;durP2;ratioP2;P2;SDS_P1;SDS_P2;PMS_P1;PMS_P2;Temp;Humidity;BMP_temperature;BMP_pressure;BME280_temperature;BME280_humidity;BME280_pressure;Samples;Min_cycle;Max_cycle;Signal;HPM_P1;HPM_P2
2024/01/23 00:02:17;;;;;;;14.60;11.70;;;;;;;6.28;100.00;100176.94;107721;1297;22231;-85
2024/01/23 00:05:00;;;;;;;;;;;;;;;;;;;;;
2024/01/23 00:07:32;;;;;;;17.20;11.20;;;;;;;6.23;100.00;100184.30;107751;1299;23015;-82
2024/01/23 00:10:08;;;;;;;16.70;11.30;;;;;;;6.22;100.00;100187.60;107847;1294;23722;-83
2024/01/23 00:12:41;;;;;;;14.70;11.40;;;;;;;6.23;100.00;100190.18;107931;1294;23739;-82
2024/01/23 00:15:12;;;;;;;9.20;6.30;;;;;;;6.21;100.00;100189.70;108137;1292;23759;-82
2024/01/23 00:17:41;;;;;;;14.80;10.70;;;;;;;6.20;100.00;100193.52;108032;1292;22361;-83
2024/01/23 00:20:11;;;;;;;15.20;10.80;;;;;;;6.19;100.00;100194.25;108215;1290;21995;-84
2024/01/23 00:22:40;;;;;;;15.30;9.90;;;;;;;6.19;100.00;100196.48;108409;1286;21996;-83
2024/01/23 00:25:12;;;;;;;14.60;9.90;;;;;;;6.20;100.00;100202.52;108495;1285;22042;-84
2024/01/23 00:27:47;;;;;;;15.00;9.70;;;;;;;6.21;100.00;100204.21;108622;1285;22150;-84
2024/01/23 00:30:19;;;;;;;16.60;11.00;;;;;;;6.23;100.00;100207.98;108233;1291;23680;-83
2024/01/23 00:32:54;;;;;;;18.30;13.20;;;;;;;6.22;100.00;100208.86;108018;1291;23638;-82
2024/01/23 00:35:23;;;;;;;16.70;11.80;;;;;;;6.20;100.00;100213.91;108457;1288;22025;-82
2024/01/23 00:37:59;;;;;;;20.40;13.40;;;;;;;6.18;100.00;100217.95;108473;1288;22020;-81
2024/01/23 00:40:31;;;;;;;20.80;13.60;;;;;;;6.16;100.00;100218.15;108486;1288;22024;-82
2024/01/23 00:43:01;;;;;;;21.20;12.60;;;;;;;6.11;100.00;100217.04;108473;1288;23025;-83
2024/01/23 00:45:32;;;;;;;18.20;11.60;;;;;;;6.06;100.00;100216.63;108401;1288;22271;-85
2024/01/23 00:48:02;;;;;;;16.90;10.90;;;;;;;6.03;100.00;100219.13;108317;1286;22558;-84
2024/01/23 00:50:39;;;;;;;14.00;10.10;;;;;;;6.01;100.00;100228.66;108780;1286;23733;-85
2024/01/23 00:53:11;;;;;;;17.70;10.10;;;;;;;6.02;100.00;100239.86;108194;1292;22013;-85
2024/01/23 00:55:40;;;;;;;17.00;9.60;;;;;;;6.02;100.00;100239.52;108209;1292;22070;-84
2024/01/23 00:58:12;;;;;;;10.70;7.70;;;;;;;6.01;100.00;100246.45;108231;1292;22012;-84
2024/01/23 01:00:44;;;;;;;15.00;9.10;;;;;;;6.00;100.00;100244.73;108372;1292;22002;-83
2024/01/23 01:03:13;;;;;;;16.40;9.20;;;;;;;6.01;100.00;100244.54;108240;1292;23752;-85
2024/01/23 01:05:45;;;;;;;18.00;11.10;;;;;;;6.02;100.00;100247.27;108288;1287;22014;-84
2024/01/23 01:08:17;;;;;;;16.80;9.50;;;;;;;6.02;100.00;100241.42;108417;1287;22018;-83
2024/01/23 01:10:47;;;;;;;14.10;9.40;;;;;;;6.03;100.00;100237.78;108454;1287;22125;-82
2024/01/23 01:13:20;;;;;;;16.50;9.60;;;;;;;6.05;100.00;100233.77;108432;1287;22009;-82
2024/01/23 01:15:55;;;;;;;15.10;9.00;;;;;;;6.07;100.00;100237.86;108559;1287;22053;-84
2024/01/23 01:18:24;;;;;;;16.10;9.40;;;;;;;6.06;100.00;100240.13;108713;1281;22048;-82
2024/01/23 01:20:56;;;;;;;13.70;8.70;;;;;;;6.03;100.00;100236.06;108778;1281;21998;-83
2024/01/23 01:23:26;;;;;;;15.40;8.10;;;;;;;5.98;100.00;100234.08;108742;1281;21998;-82
2024/01/23 01:25:56;;;;;;;15.60;8.50;;;;;;;5.95;100.00;100226.35;108847;1281;22019;-83
2024/01/23 01:28:28;;;;;;;14.90;8.20;;;;;;;5.92;100.00;100228.98;108746;1281;22039;-81
2024/01/23 01:30:57;;;;;;;13.10;7.50;;;;;;;5.91;100.00;100232.81;108646;1281;23621;-82
2024/01/23 01:33:27;;;;;;;15.30;8.30;;;;;;;5.88;100.00;100243.41;108422;1286;21993;-83
2024/01/23 01:35:58;;;;;;;15.20;7.00;;;;;;;5.85;100.00;100242.77;108295;1291;23629;-81
2024/01/23 01:38:28;;;;;;;12.50;7.40;;;;;;;5.83;100.00;100245.40;108405;1291;22275;-82
2024/01/23 01:41:00;;;;;;;11.90;7.60;;;;;;;5.84;100.00;100245.90;108203;1291;23183;-83
2024/01/23 01:43:34;;;;;;;11.40;7.00;;;;;;;5.84;100.00;100244.85;108083;1293;22039;-83
2024/01/23 01:46:28;;;;;;;14.30;6.90;;;;;;;5.83;100.00;100247.82;107902;1293;21773;-82
2024/01/23 01:49:02;;;;;;;10.80;6.90;;;;;;;5.79;100.00;100250.67;108012;1294;23689;-80
2024/01/23 01:51:32;;;;;;;12.30;6.40;;;;;;;5.78;100.00;100252.76;108210;1290;23631;-82
2024/01/23 01:54:04;;;;;;;14.90;7.80;;;;;;;5.79;100.00;100258.27;107787;1292;22012;-83
2024/01/23 01:56:38;;;;;;;12.50;6.70;;;;;;;5.81;100.00;100255.63;108214;1292;22991;-82
2024/01/23 01:59:12;;;;;;;9.90;5.30;;;;;;;5.80;100.00;100251.85;107545;1298;23168;-83
2024/01/23 02:01:44;;;;;;;11.30;7.40;;;;;;;5.80;100.00;100259.45;107764;1294;22018;-81
2024/01/23 02:04:15;;;;;;;9.60;6.50;;;;;;;5.81;100.00;100258.04;107980;1294;21929;-81
2024/01/23 02:06:46;;;;;;;11.90;8.00;;;;;;;5.85;100.00;100254.67;107943;1294;22850;-84
2024/01/23 02:09:15;;;;;;;;;;;;;;;5.88;100.00;100261.37;107413;1298;23676;-83
2024/01/23 02:12:00;;;;;;;12.70;7.50;;;;;;;5.90;100.00;100269.09;107703;1292;22008;-84
2024/01/23 02:14:30;;;;;;;13.40;9.70;;;;;;;5.93;100.00;100266.81;108136;1291;22005;-85
2024/01/23 02:16:59;;;;;;;14.00;11.60;;;;;;;5.94;100.00;100265.58;107780;1292;22005;-85
2024/01/23 02:19:29;;;;;;;17.40;12.60;;;;;;;5.95;100.00;100263.48;108090;1292;21862;-82
2024/01/23 02:22:03;;;;;;;15.30;12.60;;;;;;;5.95;100.00;100259.52;108103;1292;22407;-83
2024/01/23 02:24:41;;;;;;;15.80;12.00;;;;;;;5.93;100.00;100261.11;108204;1292;21729;-84
2024/01/23 02:27:14;;;;;;;14.60;11.10;;;;;;;5.89;100.00;100262.02;108071;1289;21983;-83
2024/01/23 02:29:43;;;;;;;11.30;8.80;;;;;;;5.87;100.00;100263.80;108457;1289;22003;-84
2024/01/23 02:32:13;;;;;;;14.20;8.70;;;;;;;5.87;100.00;100265.71;108453;1289;22054;-83
2024/01/23 02:34:44;;;;;;;10.90;7.30;;;;;;;5.83;100.00;100270.80;108345;1284;23642;-83
2024/01/23 02:37:16;;;;;;;10.50;7.00;;;;;;;5.81;100.00;100274.63;108424;1284;22092;-82
2024/01/23 02:39:45;;;;;;;11.10;6.60;;;;;;;5.80;100.00;100277.93;108610;1284;22004;-82
2024/01/23 02:42:14;;;;;;;9.70;6.20;;;;;;;5.79;100.00;100285.20;108488;1284;22013;-82
2024/01/23 02:44:45;;;;;;;8.50;5.30;;;;;;;5.80;100.00;100289.84;108492;1288;22176;-82
2024/01/23 02:47:14;;;;;;;9.70;6.20;;;;;;;5.82;100.00;100293.42;108415;1288;21975;-81
2024/01/23 02:49:43;;;;;;;11.30;6.30;;;;;;;5.85;100.00;100298.05;108243;1288;22001;-83
2024/01/23 02:52:15;;;;;;;8.60;5.20;;;;;;;5.86;100.00;100300.79;108189;1289;23785;-81
2024/01/23 02:54:44;;;;;;;10.60;5.20;;;;;;;5.89;100.00;100296.60;108429;1289;22039;-83
2024/01/23 02:57:13;;;;;;;10.00;5.50;;;;;;;5.93;100.00;100298.08;108167;1292;22762;-82
2024/01/23 02:59:48;;;;;;;10.10;5.60;;;;;;;5.97;100.00;100296.11;108320;1290;22011;-84
2024/01/23 03:02:21;;;;;;;11.50;5.70;;;;;;;6.01;100.00;100292.58;108162;1290;22761;-84
2024/01/23 03:05:03;;;;;;;9.80;5.30;;;;;;;6.05;100.00;100290.95;108487;1290;23629;-86
2024/01/23 03:07:35;;;;;;;11.80;4.60;;;;;;;6.07;100.00;100294.02;108073;1292;22008;-82
2024/01/23 03:10:07;;;;;;;7.90;3.90;;;;;;;6.03;100.00;100285.27;108150;1289;22396;-82
2024/01/23 03:12:36;;;;;;;8.10;4.40;;;;;;;6.09;100.00;100289.30;108396;1289;22063;-82
2024/01/23 03:15:07;;;;;;;9.80;4.90;;;;;;;6.08;100.00;100291.05;108476;1285;22900;-81
2024/01/23 03:17:37;;;;;;;8.80;4.80;;;;;;;6.05;100.00;100293.88;108374;1289;24099;-83
2024/01/23 03:20:07;;;;;;;8.20;5.40;;;;;;;6.00;100.00;100298.48;108282;1289;23825;-83
2024/01/23 03:22:36;;;;;;;9.90;4.60;;;;;;;5.98;100.00;100305.93;108265;1289;22009;-82
2024/01/23 03:25:07;;;;;;;10.70;5.20;;;;;;;5.98;100.00;100303.35;108480;1285;22027;-84
2024/01/23 03:27:39;;;;;;;8.20;5.00;;;;;;;5.98;100.00;100303.34;108582;1285;185298;-83
2024/01/23 03:30:28;;;;;;;9.90;5.30;;;;;;;5.99;100.00;100306.27;108695;1285;22007;-82
2024/01/23 03:33:00;;;;;;;9.90;6.00;;;;;;;6.01;100.00;100309.51;108209;1290;22017;-82
2024/01/23 03:35:32;;;;;;;11.70;5.80;;;;;;;6.03;100.00;100311.55;108305;1287;22352;-82
2024/01/23 03:38:01;;;;;;;9.10;4.80;;;;;;;6.06;100.00;100306.64;108492;1287;22005;-81
2024/01/23 03:40:30;;;;;;;11.50;5.00;;;;;;;6.08;100.00;100306.77;108074;1292;22007;-84
2024/01/23 03:42:59;;;;;;;13.10;5.40;;;;;;;6.01;100.00;100292.73;107978;1297;23711;-84
2024/01/23 03:45:45;;;;;;;11.40;5.10;;;;;;;6.04;100.00;100303.39;107861;1296;21661;-81
2024/01/23 03:48:18;;;;;;;11.10;5.10;;;;;;;6.04;100.00;100303.75;107636;1297;22025;-81
2024/01/23 03:50:48;;;;;;;8.80;5.30;;;;;;;6.03;100.00;100302.55;108084;1278;23192;-82
2024/01/23 03:53:21;;;;;;;8.50;5.10;;;;;;;6.00;100.00;100292.42;107883;1293;22198;-83
2024/01/23 03:55:50;;;;;;;8.20;4.90;;;;;;;6.06;100.00;100307.35;108052;1294;22619;-83
2024/01/23 03:58:20;;;;;;;12.90;5.90;;;;;;;6.08;100.00;100305.56;108164;1288;22002;-84
2024/01/23 04:00:49;;;;;;;9.20;5.50;;;;;;;6.10;100.00;100308.45;108535;1284;23122;-82
2024/01/23 04:03:18;;;;;;;9.20;5.80;;;;;;;6.11;100.00;100309.66;108720;1284;22754;-83
2024/01/23 04:05:57;;;;;;;9.50;5.70;;;;;;;6.12;100.00;100312.58;108597;1288;23025;-83
2024/01/23 04:08:27;;;;;;;38.30;30.70;;;;;;;6.11;100.00;100308.78;107995;1292;22024;-83
2024/01/23 04:10:57;;;;;;;13.70;7.90;;;;;;;6.10;100.00;100306.22;107897;1291;22012;-83
2024/01/23 04:13:32;;;;;;;9.10;5.40;;;;;;;6.09;100.00;100305.89;108263;1291;22057;-84
2024/01/23 04:16:02;;;;;;;50.10;36.40;;;;;;;6.10;100.00;100301.90;108312;1291;22068;-83
2024/01/23 04:18:31;;;;;;;16.10;8.10;;;;;;;6.11;100.00;100307.42;108095;1294;21973;-84
2024/01/23 04:21:01;;;;;;;12.40;6.40;;;;;;;6.10;100.00;100311.91;108136;1294;22763;-84
2024/01/23 04:23:33;;;;;;;11.70;6.60;;;;;;;6.08;100.00;100307.80;107792;1294;22011;-81
2024/01/23 04:26:09;;;;;;;9.80;5.80;;;;;;;6.06;100.00;100305.95;107943;1292;22847;-82
2024/01/23 04:28:38;;;;;;;17.40;6.30;;;;;;;6.06;100.00;100312.52;108107;1292;22010;-82
2024/01/23 04:31:08;;;;;;;10.80;7.20;;;;;;;6.06;100.00;100313.89;108207;1292;22037;-83
2024/01/23 04:33:55;;;;;;;10.40;5.90;;;;;;;6.07;100.00;100310.09;108325;1290;24456;-83
2024/01/23 04:36:31;;;;;;;11.10;6.40;;;;;;;6.09;100.00;100306.23;107894;1293;23721;-82
2024/01/23 04:39:11;;;;;;;16.80;8.00;;;;;;;6.08;100.00;100301.76;108049;1293;22026;-84
2024/01/23 04:41:42;;;;;;;14.20;8.30;;;;;;;6.12;100.00;100303.41;107947;1293;22031;-85
2024/01/23 04:44:15;;;;;;;15.20;10.50;;;;;;;6.10;100.00;100305.69;108263;1290;23654;-85
2024/01/23 04:46:58;;;;;;;16.50;11.70;;;;;;;6.08;100.00;100310.58;108205;1289;22075;-84
2024/01/23 04:49:39;;;;;;;20.50;11.70;;;;;;;6.06;100.00;100322.02;108382;1290;22009;-85
2024/01/23 04:52:14;;;;;;;19.90;14.40;;;;;;;6.04;100.00;100324.98;108529;1289;22003;-85
2024/01/23 04:54:55;;;;;;;15.80;13.70;;;;;;;6.01;100.00;100322.46;108397;1284;22016;-84
2024/01/23 04:57:32;;;;;;;16.40;12.50;;;;;;;5.96;100.00;100326.70;108775;1279;21998;-83
2024/01/23 05:00:09;;;;;;;15.00;10.40;;;;;;;5.90;100.00;100325.41;108703;1281;22023;-81
2024/01/23 05:02:38;;;;;;;15.10;11.30;;;;;;;5.86;100.00;100326.18;108594;1286;22013;-84
2024/01/23 05:05:08;;;;;;;15.50;10.00;;;;;;;5.83;100.00;100328.46;108165;1291;22092;-81
2024/01/23 05:07:39;;;;;;;14.70;9.90;;;;;;;5.83;100.00;100326.22;108009;1291;23016;-85
2024/01/23 05:10:09;;;;;;;14.30;10.70;;;;;;;5.84;100.00;100332.42;108129;1291;22055;-83
2024/01/23 05:12:38;;;;;;;13.20;10.00;;;;;;;5.83;100.00;100333.65;108223;1291;22195;-83
2024/01/23 05:15:12;;;;;;;16.40;9.00;;;;;;;5.79;100.00;100335.46;108060;1291;22024;-83
2024/01/23 05:17:49;;;;;;;17.10;9.90;;;;;;;5.75;100.00;100336.91;107985;1295;23115;-81
2024/01/23 05:20:28;;;;;;;14.60;10.20;;;;;;;5.69;100.00;100337.70;107823;1295;23760;-82
2024/01/23 05:23:04;;;;;;;13.40;9.20;;;;;;;5.67;100.00;100342.06;108107;1292;23071;-82
2024/01/23 05:25:41;;;;;;;11.50;7.80;;;;;;;5.66;100.00;100345.19;108098;1291;23754;-82
2024/01/23 05:28:09;;;;;;;18.00;7.10;;;;;;;5.63;100.00;100348.69;107749;1296;22036;-82
2024/01/23 05:30:38;;;;;;;13.70;6.50;;;;;;;5.63;100.00;100351.27;107654;1296;23663;-82
2024/01/23 05:33:07;;;;;;;11.40;6.50;;;;;;;5.61;100.00;100357.88;107827;1296;22017;-82
2024/01/23 05:35:36;;;;;;;11.70;6.20;;;;;;;5.59;100.00;100358.43;107825;1292;23796;-84
2024/01/23 05:38:12;;;;;;;13.80;6.20;;;;;;;5.59;100.00;100361.88;108133;1292;22018;-84
2024/01/23 05:40:44;;;;;;;14.40;6.50;;;;;;;5.58;100.00;100359.63;108332;1289;23627;-81
2024/01/23 05:43:17;;;;;;;16.00;7.40;;;;;;;5.59;100.00;100357.91;108271;1289;22542;-82
2024/01/23 05:45:53;;;;;;;13.60;6.30;;;;;;;5.58;100.00;100358.43;108528;1281;23207;-83
2024/01/23 05:48:26;;;;;;;17.80;7.10;;;;;;;5.59;100.00;100362.91;108672;1281;22285;-82
2024/01/23 05:50:57;;;;;;;16.60;6.40;;;;;;;5.59;100.00;100367.05;108797;1281;21993;-84
2024/01/23 05:53:31;;;;;;;15.80;6.50;;;;;;;5.58;100.00;100367.94;108639;1281;21990;-83
2024/01/23 05:56:03;;;;;;;8.60;5.30;;;;;;;5.57;100.00;100362.44;108646;1281;21992;-83
2024/01/23 05:58:36;;;;;;;12.90;6.40;;;;;;;5.58;100.00;100363.45;108794;1281;23624;-82
2024/01/23 06:01:11;;;;;;;11.40;6.10;;;;;;;5.58;100.00;100366.21;108810;1281;21992;-83
2024/01/23 06:03:43;;;;;;;12.10;6.50;;;;;;;5.58;100.00;100370.87;108828;1281;23015;-82
2024/01/23 06:06:18;;;;;;;14.30;6.80;;;;;;;5.59;100.00;100377.92;108944;1281;23724;-83
2024/01/23 06:08:48;;;;;;;11.80;6.60;;;;;;;5.60;100.00;100383.61;108872;1281;22011;-83
2024/01/23 06:11:22;;;;;;;;;;;;;;;5.65;100.00;100390.42;108512;1286;23775;-83
2024/01/23 06:14:12;;;;;;;13.40;6.80;;;;;;;5.61;100.00;100403.10;108367;1288;22016;-84
2024/01/23 06:16:45;;;;;;;15.90;7.20;;;;;;;5.65;100.00;100409.76;108361;1289;21999;-82
2024/01/23 06:19:23;;;;;;;17.80;9.50;;;;;;;5.71;100.00;100412.09;108427;1289;22011;-83
2024/01/23 06:21:52;;;;;;;21.50;10.70;;;;;;;5.73;100.00;100416.38;108463;1289;22078;-81
2024/01/23 06:24:26;;;;;;;16.20;9.50;;;;;;;5.71;100.00;100421.23;108003;1293;22023;-79
2024/01/23 06:26:55;;;;;;;18.10;8.40;;;;;;;5.70;100.00;100426.44;108223;1294;23105;-82
2024/01/23 06:29:24;;;;;;;55.60;30.10;;;;;;;5.69;100.00;100427.14;107548;1299;23808;-82
2024/01/23 06:31:55;;;;;;;18.20;9.70;;;;;;;5.70;100.00;100430.41;107669;1294;23103;-81
2024/01/23 06:34:27;;;;;;;20.10;13.40;;;;;;;5.71;100.00;100429.02;107560;1299;22117;-83
2024/01/23 06:37:15;;;;;;;31.80;18.50;;;;;;;5.71;100.00;100428.33;107855;1294;23644;-83
2024/01/23 06:39:43;;;;;;;34.60;22.70;;;;;;;5.70;100.00;100433.35;108017;1294;22074;-82
2024/01/23 06:42:13;;;;;;;30.60;19.30;;;;;;;5.71;100.00;100436.79;107935;1294;22061;-85
2024/01/23 06:44:42;;;;;;;15.70;9.20;;;;;;;5.72;100.00;100439.70;107918;1294;23743;-84
2024/01/23 06:47:11;;;;;;;16.40;10.30;;;;;;;5.70;100.00;100440.60;107994;1290;22025;-82
2024/01/23 06:49:40;;;;;;;17.20;8.80;;;;;;;5.67;100.00;100442.03;108458;1286;22002;-83
2024/01/23 06:52:11;;;;;;;16.30;9.10;;;;;;;5.65;100.00;100443.79;108077;1288;21800;-82
2024/01/23 06:54:41;;;;;;;18.00;8.40;;;;;;;5.64;100.00;100447.43;108321;1292;22006;-82
2024/01/23 06:57:10;;;;;;;18.80;8.20;;;;;;;5.56;100.00;100440.31;108172;1292;23947;-81
2024/01/23 06:59:42;;;;;;;23.90;11.70;;;;;;;5.54;100.00;100443.95;108036;1292;23720;-82
2024/01/23 07:02:16;;;;;;;28.50;13.80;;;;;;;5.58;100.00;100460.63;108107;1289;22030;-83
2024/01/23 07:04:48;;;;;;;27.10;14.90;;;;;;;5.55;100.00;100460.52;108082;1292;22478;-82
2024/01/23 07:08:20;;;;;;;27.50;16.10;;;;;;;5.51;100.00;100464.02;108125;1292;22032;-86
2024/01/23 07:11:28;;;;;;;18.90;10.20;;;;;;;5.43;100.00;100471.05;107610;1298;22149;-85
2024/01/23 07:14:01;;;;;;;18.30;10.20;;;;;;;5.43;100.00;100470.19;107899;1294;22019;-85
2024/01/23 07:16:34;;;;;;;19.90;9.40;;;;;;;5.47;100.00;100476.52;107598;1294;22159;-83
2024/01/23 07:19:12;;;;;;;16.20;9.90;;;;;;;5.51;100.00;100479.05;107517;1294;23074;-86
2024/01/23 07:21:42;;;;;;;118.00;58.40;;;;;;;5.52;100.00;100477.99;107971;1294;22044;-83
2024/01/23 07:24:17;;;;;;;177.20;91.60;;;;;;;5.51;100.00;100479.56;107337;1299;22586;-84
2024/01/23 07:26:46;;;;;;;108.90;66.10;;;;;;;5.51;100.00;100486.81;106988;1300;22108;-84
2024/01/23 07:29:17;;;;;;;75.00;48.80;;;;;;;5.51;100.00;100491.64;106943;1303;23734;-85
2024/01/23 07:31:48;;;;;;;56.30;36.90;;;;;;;5.52;100.00;100498.54;107153;1303;22023;-85
2024/01/23 07:34:20;;;;;;;42.70;31.60;;;;;;;5.52;100.00;100506.82;106992;1303;22021;-84
2024/01/23 07:36:49;;;;;;;28.00;18.90;;;;;;;5.53;100.00;100513.20;107023;1303;23529;-83
2024/01/23 07:39:18;;;;;;;;;;;;;;;5.54;100.00;100516.64;106959;1303;23835;-83
2024/01/23 07:42:02;;;;;;;15.90;11.60;;;;;;;5.55;100.00;100517.83;107193;1294;22780;-80
2024/01/23 07:44:39;;;;;;;15.20;9.70;;;;;;;5.55;100.00;100524.21;108034;1291;22436;-80
2024/01/23 07:47:11;;;;;;;23.00;10.90;;;;;;;5.58;100.00;100527.29;108134;1285;22008;-81
2024/01/23 07:49:41;;;;;;;22.60;13.40;;;;;;;5.58;100.00;100532.80;108296;1288;23735;-81
2024/01/23 07:52:19;;;;;;;19.40;13.20;;;;;;;5.60;100.00;100536.58;108031;1293;22011;-80
2024/01/23 07:54:57;;;;;;;15.50;15.90;;;;;;;5.63;100.00;100540.84;107717;1297;22029;-83
2024/01/23 07:57:31;;;;;;;15.30;10.30;;;;;;;5.65;100.00;100547.89;107326;1302;22176;-84
2024/01/23 08:00:04;;;;;;;23.10;14.10;;;;;;;5.71;100.00;100548.67;107418;1299;23687;-82
2024/01/23 08:02:40;;;;;;;17.20;11.60;;;;;;;5.81;100.00;100556.14;107547;1299;22241;-84
2024/01/23 08:05:15;;;;;;;17.80;10.70;;;;;;;5.91;100.00;100556.48;106914;1304;22069;-88
2024/01/23 08:07:44;;;;;;;20.90;10.60;;;;;;;6.01;100.00;100552.73;107121;1301;22013;-85
2024/01/23 08:10:15;;;;;;;24.20;10.80;;;;;;;6.09;100.00;100554.17;107388;1300;23082;-80
2024/01/23 08:12:44;;;;;;;22.30;11.20;;;;;;;6.19;100.00;100564.73;106932;1301;23831;-80
2024/01/23 08:15:15;;;;;;;22.60;12.30;;;;;;;6.20;100.00;100549.15;107291;1301;22027;-80
2024/01/23 08:17:51;;;;;;;27.50;12.40;;;;;;;6.33;100.00;100565.00;107484;1296;22031;-79
2024/01/23 08:20:26;;;;;;;33.90;17.10;;;;;;;6.38;100.00;100564.93;108462;1294;22033;-79
2024/01/23 08:22:58;;;;;;;35.00;18.70;;;;;;;6.42;100.00;100570.05;108027;1290;22079;-86
2024/01/23 08:25:27;;;;;;;29.00;15.90;;;;;;;6.46;100.00;100568.92;108288;1290;23097;-81
2024/01/23 08:28:09;;;;;;;;;;;;;;;6.51;100.00;100577.50;107961;1294;21999;-79
2024/01/23 08:30:41;;;;;;;19.10;13.20;;;;;;;6.55;100.00;100594.19;108307;1285;21981;-80
2024/01/23 08:33:17;;;;;;;21.90;11.90;;;;;;;6.56;100.00;100603.17;108365;1286;23403;-80
2024/01/23 08:36:01;;;;;;;20.50;11.30;;;;;;;6.52;100.00;100605.33;108168;1292;22050;-80
2024/01/23 08:38:38;;;;;;;18.60;10.80;;;;;;;6.46;100.00;100610.62;107944;1292;23649;-80
2024/01/23 08:41:17;;;;;;;12.00;7.10;;;;;;;6.41;100.00;100612.23;107553;1298;22023;-83
2024/01/23 08:44:09;;;;;;;17.50;8.80;;;;;;;6.40;100.00;100614.34;107676;1297;22013;-80
2024/01/23 08:46:38;;;;;;;;;;;;;;;6.42;100.00;100616.90;107619;1295;22064;-80
2024/01/23 08:49:06;;;;;;;8.50;7.20;;;;;;;6.35;100.00;100620.10;107810;1294;22032;-80
2024/01/23 08:51:37;;;;;;;12.80;8.00;;;;;;;6.36;100.00;100616.98;107645;1297;22098;-82
2024/01/23 08:54:05;;;;;;;11.80;7.00;;;;;;;6.41;100.00;100616.92;107625;1296;23740;-82
2024/01/23 08:56:39;;;;;;;7.30;4.80;;;;;;;6.43;100.00;100632.44;107294;1301;23096;-81
2024/01/23 08:59:16;;;;;;;14.10;6.80;;;;;;;6.46;100.00;100643.12;107443;1295;22056;-80
2024/01/23 09:01:45;;;;;;;10.60;5.40;;;;;;;6.48;100.00;100651.38;108215;1291;24347;-80
2024/01/23 09:04:13;;;;;;;;;;;;;;;6.53;100.00;100651.14;107751;1295;22018;-81
2024/01/23 09:06:43;;;;;;;8.00;5.30;;;;;;;6.53;100.00;100657.52;107777;1295;22488;-80
2024/01/23 09:09:12;;;;;;;14.90;6.60;;;;;;;6.50;100.00;100665.52;107622;1292;22049;-81
2024/01/23 09:11:40;;;;;;;12.10;6.90;;;;;;;6.45;100.00;100672.34;107990;1292;23731;-80
2024/01/23 09:14:08;;;;;;;17.00;10.00;;;;;;;6.43;100.00;100673.77;107981;1288;22084;-79
2024/01/23 09:16:36;;;;;;;13.50;8.60;;;;;;;6.45;100.00;100668.38;108240;1288;22051;-81
2024/01/23 09:19:05;;;;;;;11.70;7.70;;;;;;;6.46;100.00;100666.96;108386;1288;23845;-79
2024/01/23 09:21:49;;;;;;;14.80;7.40;;;;;;;6.51;100.00;100675.89;108265;1288;24377;-80
2024/01/23 09:24:24;;;;;;;15.50;9.10;;;;;;;6.60;100.00;100679.55;108116;1288;22109;-79
2024/01/23 09:26:59;;;;;;;14.30;6.80;;;;;;;6.77;100.00;100687.38;108366;1288;23644;-80
2024/01/23 09:29:34;;;;;;;11.40;6.60;;;;;;;6.95;100.00;100686.56;108700;1281;23770;-79
2024/01/23 09:32:06;;;;;;;13.90;8.90;;;;;;;7.13;100.00;100688.14;108266;1282;22469;-80
2024/01/23 09:34:36;;;;;;;16.10;8.70;;;;;;;7.31;100.00;100695.77;108125;1288;23060;-80
2024/01/23 09:37:09;;;;;;;13.20;7.00;;;;;;;7.49;100.00;100697.68;108384;1288;22003;-81
2024/01/23 09:39:42;;;;;;;10.60;6.10;;;;;;;7.66;100.00;100698.55;108087;1292;22454;-82
2024/01/23 09:42:24;;;;;;;7.90;5.10;;;;;;;7.80;100.00;100696.72;107798;1291;22010;-79
2024/01/23 09:45:17;;;;;;;11.70;6.30;;;;;;;7.93;100.00;100701.48;107660;1297;22028;-80
2024/01/23 09:47:57;;;;;;;11.60;6.70;;;;;;;8.08;100.00;100699.23;107091;1301;23622;-80
2024/01/23 09:50:29;;;;;;;7.70;4.80;;;;;;;8.21;100.00;100696.54;107476;1295;22072;-78
2024/01/23 09:53:16;;;;;;;10.70;6.30;;;;;;;8.26;100.00;100697.30;107640;1290;22975;-78
2024/01/23 09:55:48;;;;;;;9.20;4.40;;;;;;;8.23;100.00;100703.76;107892;1295;22012;-79
2024/01/23 09:58:18;;;;;;;15.20;10.00;;;;;;;8.16;100.00;100702.70;108171;1292;22053;-78
2024/01/23 10:00:58;;;;;;;10.80;7.30;;;;;;;8.08;100.00;100694.23;108060;1286;22006;-79
2024/01/23 10:03:36;;;;;;;19.10;11.00;;;;;;;7.96;100.00;100687.73;108298;1286;22009;-78
2024/01/23 10:06:11;;;;;;;17.40;10.20;;;;;;;7.86;100.00;100687.95;108379;1281;22192;-79
2024/01/23 10:08:52;;;;;;;17.70;9.70;;;;;;;7.75;100.00;100697.34;108556;1281;22766;-79
2024/01/23 10:11:34;;;;;;;16.00;8.50;;;;;;;7.66;100.00;100698.90;108586;1281;22064;-79
2024/01/23 10:14:07;;;;;;;9.30;6.30;;;;;;;7.59;100.00;100692.98;108580;1281;22044;-79
2024/01/23 10:16:50;;;;;;;12.10;7.40;;;;;;;7.55;100.00;100688.55;108566;1280;22478;-79
2024/01/23 10:19:26;;;;;;;18.20;8.00;;;;;;;7.49;100.00;100695.42;108614;1281;23618;-78
2024/01/23 10:22:22;;;;;;;11.80;6.70;;;;;;;7.46;100.00;100702.77;108285;1286;23666;-78
2024/01/23 10:24:56;;;;;;;14.20;7.00;;;;;;;7.39;100.00;100701.67;108559;1286;22999;-78
2024/01/23 10:27:31;;;;;;;18.20;9.10;;;;;;;7.35;100.00;100704.55;108499;1286;22009;-77
2024/01/23 10:30:12;;;;;;;15.30;8.10;;;;;;;7.28;100.00;100699.80;108629;1282;23739;-80
2024/01/23 10:32:48;;;;;;;13.70;6.60;;;;;;;7.23;100.00;100696.63;108593;1285;22009;-80
2024/01/23 10:35:31;;;;;;;15.80;7.20;;;;;;;7.15;100.00;100708.02;108874;1286;22012;-81
2024/01/23 10:38:16;;;;;;;14.20;7.20;;;;;;;7.10;100.00;100721.61;108585;1286;23142;-78
2024/01/23 10:40:51;;;;;;;15.50;7.60;;;;;;;6.98;100.00;100714.55;108436;1285;23178;-80
2024/01/23 10:43:24;;;;;;;16.20;8.20;;;;;;;7.03;100.00;100720.50;108315;1290;22779;-79
2024/01/23 10:46:02;;;;;;;12.60;6.90;;;;;;;7.03;100.00;100721.73;107544;1297;22119;-79
2024/01/23 10:48:37;;;;;;;17.00;9.30;;;;;;;7.03;100.00;100730.55;107715;1297;22887;-79
2024/01/23 10:51:21;;;;;;;17.40;8.50;;;;;;;7.04;100.00;100733.30;107496;1297;22320;-77
2024/01/23 10:54:08;;;;;;;18.00;9.10;;;;;;;7.02;100.00;100729.70;107694;1294;22061;-78
2024/01/23 10:56:52;;;;;;;13.40;7.10;;;;;;;7.02;100.00;100727.11;107714;1293;22004;-80
2024/01/23 10:59:33;;;;;;;22.50;12.90;;;;;;;7.04;100.00;100732.10;107986;1294;22381;-78
2024/01/23 11:02:40;;;;;;;24.30;13.90;;;;;;;7.05;100.00;100738.14;107827;1290;22818;-79
2024/01/23 11:05:47;;;;;;;19.90;10.90;;;;;;;7.04;100.00;100741.44;108147;1285;21878;-81
2024/01/23 11:08:36;;;;;;;17.40;9.90;;;;;;;7.04;100.00;100742.64;107708;1294;22027;-78
2024/01/23 11:11:29;;;;;;;12.40;6.60;;;;;;;7.07;100.00;100741.21;108082;1291;24346;-77
2024/01/23 11:14:31;;;;;;;19.10;8.20;;;;;;;7.08;100.00;100740.85;107978;1291;22222;-79
2024/01/23 11:17:08;;;;;;;14.40;8.10;;;;;;;7.08;100.00;100748.29;107879;1293;22457;-79
2024/01/23 11:19:45;;;;;;;19.80;9.50;;;;;;;7.08;100.00;100742.75;108168;1293;24453;-78
2024/01/23 11:22:22;;;;;;;16.60;8.60;;;;;;;7.08;100.00;100746.57;107731;1293;25054;-78
2024/01/23 11:24:54;;;;;;;23.00;9.20;;;;;;;7.06;100.00;100746.94;107722;1296;22016;-77
2024/01/23 11:27:40;;;;;;;14.80;5.60;;;;;;;7.09;100.00;100741.89;107851;1293;22045;-78
2024/01/23 11:30:17;;;;;;;19.70;8.40;;;;;;;7.07;100.00;100737.74;107964;1290;23796;-79
2024/01/23 11:32:52;;;;;;;18.50;7.90;;;;;;;7.06;100.00;100731.37;108487;1286;22802;-77
2024/01/23 11:35:21;;;;;;;17.00;10.40;;;;;;;7.01;100.00;100726.08;108441;1286;22088;-78
2024/01/23 11:37:51;;;;;;;19.30;9.60;;;;;;;6.98;100.00;100723.02;108510;1282;23008;-81
2024/01/23 11:40:34;;;;;;;19.20;9.50;;;;;;;6.95;100.00;100727.23;107956;1292;23765;-78
2024/01/23 11:43:21;;;;;;;21.30;10.10;;;;;;;6.93;100.00;100726.74;108107;1288;22005;-78